sensor_id;sensor_type;location;lat;lon;timestamp;pressure;altitude;pressure_sealevel;temperature;humidity
55187;BME280;55457;52.002;5.464;2023-06-19T00:00:36;100575.19;;;25.74;43.35
55187;BME280;55457;52.002;5.464;2023-06-19T00:03:02;100576.03;;;25.74;43.26
55187;BME280;55457;52.002;5.464;2023-06-19T00:05:28;100576.53;;;25.76;43.29
55187;BME280;55457;52.002;5.464;2023-06-19T00:07:53;100575.19;;;25.79;43.26
55187;BME280;55457;52.002;5.464;2023-06-19T00:10:19;100580.09;;;25.77;43.50
55187;BME280;55457;52.002;5.464;2023-06-19T00:12:44;100577.06;;;25.79;43.45
55187;BME280;55457;52.002;5.464;2023-06-19T00:15:10;100591.56;;;25.79;43.51
55187;BME280;55457;52.002;5.464;2023-06-19T00:17:35;100589.09;;;25.77;43.63
55187;BME280;55457;52.002;5.464;2023-06-19T00:20:04;100589.63;;;25.80;43.57
55187;BME280;55457;52.002;5.464;2023-06-19T00:22:34;100586.38;;;25.72;44.01
55187;BME280;55457;52.002;5.464;2023-06-19T00:24:59;100590.28;;;25.61;44.42
55187;BME280;55457;52.002;5.464;2023-06-19T00:27:25;100585.97;;;25.55;44.69
55187;BME280;55457;52.002;5.464;2023-06-19T00:29:51;100590.94;;;25.48;44.99
55187;BME280;55457;52.002;5.464;2023-06-19T00:32:17;100588.81;;;25.40;45.23
55187;BME280;55457;52.002;5.464;2023-06-19T00:34:42;100596.50;;;25.33;45.36
55187;BME280;55457;52.002;5.464;2023-06-19T00:37:10;100593.25;;;25.25;45.91
55187;BME280;55457;52.002;5.464;2023-06-19T00:39:39;100602.59;;;25.14;46.25
55187;BME280;55457;52.002;5.464;2023-06-19T00:42:05;100601.28;;;25.07;46.66
55187;BME280;55457;52.002;5.464;2023-06-19T00:44:30;100604.25;;;25.00;46.98
55187;BME280;55457;52.002;5.464;2023-06-19T00:46:58;100613.56;;;24.94;47.19
55187;BME280;55457;52.002;5.464;2023-06-19T00:49:26;100610.88;;;24.89;47.32
55187;BME280;55457;52.002;5.464;2023-06-19T00:51:52;100607.34;;;24.83;47.89
55187;BME280;55457;52.002;5.464;2023-06-19T00:54:19;100615.28;;;24.80;47.75
55187;BME280;55457;52.002;5.464;2023-06-19T00:56:44;100603.81;;;24.78;47.99
55187;BME280;55457;52.002;5.464;2023-06-19T00:59:17;100612.00;;;24.78;48.30
55187;BME280;55457;52.002;5.464;2023-06-19T01:01:44;100613.38;;;24.80;48.11
55187;BME280;55457;52.002;5.464;2023-06-19T01:04:10;100624.28;;;24.80;48.30
55187;BME280;55457;52.002;5.464;2023-06-19T01:07:01;100625.63;;;24.78;48.49
55187;BME280;55457;52.002;5.464;2023-06-19T01:09:38;100627.84;;;24.76;48.75
55187;BME280;55457;52.002;5.464;2023-06-19T01:12:12;100627.56;;;24.72;48.67
55187;BME280;55457;52.002;5.464;2023-06-19T01:14:40;100634.94;;;24.66;49.17
55187;BME280;55457;52.002;5.464;2023-06-19T01:17:10;100634.16;;;24.51;49.88
55187;BME280;55457;52.002;5.464;2023-06-19T01:19:36;100643.97;;;24.41;50.20
55187;BME280;55457;52.002;5.464;2023-06-19T01:22:02;100648.88;;;24.34;50.91
55187;BME280;55457;52.002;5.464;2023-06-19T01:24:28;100661.69;;;24.29;50.83
55187;BME280;55457;52.002;5.464;2023-06-19T01:26:54;100655.44;;;24.28;51.11
55187;BME280;55457;52.002;5.464;2023-06-19T01:29:20;100660.06;;;24.28;51.27
55187;BME280;55457;52.002;5.464;2023-06-19T01:31:59;100665.22;;;24.24;51.22
55187;BME280;55457;52.002;5.464;2023-06-19T01:34:29;100664.66;;;24.27;51.30
55187;BME280;55457;52.002;5.464;2023-06-19T01:36:55;100662.50;;;24.29;51.23
55187;BME280;55457;52.002;5.464;2023-06-19T01:39:22;100662.78;;;24.38;50.65
55187;BME280;55457;52.002;5.464;2023-06-19T01:41:49;100662.22;;;24.46;50.77
55187;BME280;55457;52.002;5.464;2023-06-19T01:44:16;100652.72;;;24.49;50.84
55187;BME280;55457;52.002;5.464;2023-06-19T01:46:41;100661.69;;;24.49;50.69
55187;BME280;55457;52.002;5.464;2023-06-19T01:49:09;100654.59;;;24.48;51.20
55187;BME280;55457;52.002;5.464;2023-06-19T01:51:37;100658.69;;;24.51;51.08
55187;BME280;55457;52.002;5.464;2023-06-19T01:54:02;100655.16;;;24.50;50.93
55187;BME280;55457;52.002;5.464;2023-06-19T01:56:29;100657.28;;;24.53;51.04
55187;BME280;55457;52.002;5.464;2023-06-19T01:58:55;100669.88;;;24.49;52.00
55187;BME280;55457;52.002;5.464;2023-06-19T02:01:20;100665.47;;;24.48;51.58
55187;BME280;55457;52.002;5.464;2023-06-19T02:03:46;100663.31;;;24.50;51.40
55187;BME280;55457;52.002;5.464;2023-06-19T02:06:11;100675.31;;;24.54;51.84
55187;BME280;55457;52.002;5.464;2023-06-19T02:08:37;100674.22;;;24.55;51.82
55187;BME280;55457;52.002;5.464;2023-06-19T02:11:02;100671.19;;;24.57;52.44
55187;BME280;55457;52.002;5.464;2023-06-19T02:13:27;100674.44;;;24.59;51.75
55187;BME280;55457;52.002;5.464;2023-06-19T02:15:53;100679.09;;;24.53;52.35
55187;BME280;55457;52.002;5.464;2023-06-19T02:18:18;100676.66;;;24.46;52.72
55187;BME280;55457;52.002;5.464;2023-06-19T02:20:43;100678.56;;;24.46;52.60
55187;BME280;55457;52.002;5.464;2023-06-19T02:23:09;100668.22;;;24.43;52.86
55187;BME280;55457;52.002;5.464;2023-06-19T02:25:34;100672.84;;;24.47;52.39
55187;BME280;55457;52.002;5.464;2023-06-19T02:28:00;100673.91;;;24.57;51.63
55187;BME280;55457;52.002;5.464;2023-06-19T02:30:26;100668.44;;;24.67;51.15
55187;BME280;55457;52.002;5.464;2023-06-19T02:32:51;100676.06;;;24.75;51.38
55187;BME280;55457;52.002;5.464;2023-06-19T02:35:16;100686.69;;;24.82;51.36
55187;BME280;55457;52.002;5.464;2023-06-19T02:37:42;100677.38;;;24.88;50.90
55187;BME280;55457;52.002;5.464;2023-06-19T02:40:08;100668.66;;;24.91;50.83
55187;BME280;55457;52.002;5.464;2023-06-19T02:42:35;100678.44;;;24.97;50.80
55187;BME280;55457;52.002;5.464;2023-06-19T02:45:01;100686.63;;;25.02;51.03
55187;BME280;55457;52.002;5.464;2023-06-19T02:47:32;100683.88;;;25.02;50.83
55187;BME280;55457;52.002;5.464;2023-06-19T02:49:59;100692.88;;;25.03;50.41
55187;BME280;55457;52.002;5.464;2023-06-19T02:52:24;100687.41;;;25.03;50.75
55187;BME280;55457;52.002;5.464;2023-06-19T02:54:50;100699.69;;;25.00;51.61
55187;BME280;55457;52.002;5.464;2023-06-19T02:57:15;100706.25;;;24.89;52.03
55187;BME280;55457;52.002;5.464;2023-06-19T02:59:41;100699.19;;;24.83;52.13
55187;BME280;55457;52.002;5.464;2023-06-19T03:02:06;100704.66;;;24.83;51.73
55187;BME280;55457;52.002;5.464;2023-06-19T03:04:31;100699.47;;;24.86;51.26
55187;BME280;55457;52.002;5.464;2023-06-19T03:06:57;100696.47;;;24.88;52.11
55187;BME280;55457;52.002;5.464;2023-06-19T03:09:22;100703.53;;;24.89;51.84
55187;BME280;55457;52.002;5.464;2023-06-19T03:11:47;100697.56;;;24.87;52.43
55187;BME280;55457;52.002;5.464;2023-06-19T03:14:13;100696.75;;;24.81;52.45
55187;BME280;55457;52.002;5.464;2023-06-19T03:16:38;100698.94;;;24.79;52.43
55187;BME280;55457;52.002;5.464;2023-06-19T03:19:03;100701.94;;;24.78;53.11
55187;BME280;55457;52.002;5.464;2023-06-19T03:21:29;100703.06;;;24.71;52.86
55187;BME280;55457;52.002;5.464;2023-06-19T03:23:54;100703.59;;;24.68;53.11
55187;BME280;55457;52.002;5.464;2023-06-19T03:26:20;100705.25;;;24.59;54.53
55187;BME280;55457;52.002;5.464;2023-06-19T03:28:46;100713.44;;;24.54;53.90
55187;BME280;55457;52.002;5.464;2023-06-19T03:31:12;100708.81;;;24.50;54.63
55187;BME280;55457;52.002;5.464;2023-06-19T03:33:38;100722.16;;;24.41;54.94
55187;BME280;55457;52.002;5.464;2023-06-19T03:36:03;100727.06;;;24.39;54.70
55187;BME280;55457;52.002;5.464;2023-06-19T03:38:29;100725.41;;;24.38;55.33
55187;BME280;55457;52.002;5.464;2023-06-19T03:40:54;100733.31;;;24.29;55.91
55187;BME280;55457;52.002;5.464;2023-06-19T03:43:20;100739.84;;;24.23;56.07
55187;BME280;55457;52.002;5.464;2023-06-19T03:45:45;100740.66;;;24.18;57.00
55187;BME280;55457;52.002;5.464;2023-06-19T03:48:11;100748.53;;;24.15;57.20
55187;BME280;55457;52.002;5.464;2023-06-19T03:50:36;100743.91;;;24.15;56.46
55187;BME280;55457;52.002;5.464;2023-06-19T03:53:02;100752.34;;;24.14;57.14
55187;BME280;55457;52.002;5.464;2023-06-19T03:55:27;100757.50;;;24.10;57.66
55187;BME280;55457;52.002;5.464;2023-06-19T03:57:53;100756.97;;;24.08;58.07
55187;BME280;55457;52.002;5.464;2023-06-19T04:00:18;100764.59;;;24.11;57.92
55187;BME280;55457;52.002;5.464;2023-06-19T04:02:44;100768.41;;;24.10;58.32
55187;BME280;55457;52.002;5.464;2023-06-19T04:05:14;100765.97;;;24.09;58.47
55187;BME280;55457;52.002;5.464;2023-06-19T04:07:40;100755.06;;;24.09;58.28
55187;BME280;55457;52.002;5.464;2023-06-19T04:10:06;100766.25;;;24.12;58.26
55187;BME280;55457;52.002;5.464;2023-06-19T04:12:32;100768.13;;;24.17;57.93
55187;BME280;55457;52.002;5.464;2023-06-19T04:14:57;100767.34;;;24.27;57.46
55187;BME280;55457;52.002;5.464;2023-06-19T04:17:22;100778.78;;;24.34;57.68
55187;BME280;55457;52.002;5.464;2023-06-19T04:19:48;100781.22;;;24.25;59.08
55187;BME280;55457;52.002;5.464;2023-06-19T04:22:13;100783.13;;;24.19;58.90
55187;BME280;55457;52.002;5.464;2023-06-19T04:24:38;100786.38;;;24.21;58.91
55187;BME280;55457;52.002;5.464;2023-06-19T04:27:04;100785.84;;;24.14;59.68
55187;BME280;55457;52.002;5.464;2023-06-19T04:29:29;100794.78;;;24.00;60.10
55187;BME280;55457;52.002;5.464;2023-06-19T04:31:59;100796.69;;;23.94;60.65
55187;BME280;55457;52.002;5.464;2023-06-19T04:34:25;100799.41;;;23.94;60.18
55187;BME280;55457;52.002;5.464;2023-06-19T04:36:50;100813.28;;;23.92;60.33
55187;BME280;55457;52.002;5.464;2023-06-19T04:39:16;100815.75;;;23.99;59.46
55187;BME280;55457;52.002;5.464;2023-06-19T04:41:44;100814.16;;;24.08;59.45
55187;BME280;55457;52.002;5.464;2023-06-19T04:44:10;100805.72;;;24.20;58.62
55187;BME280;55457;52.002;5.464;2023-06-19T04:46:38;100815.28;;;24.33;58.02
55187;BME280;55457;52.002;5.464;2023-06-19T04:49:05;100816.41;;;24.42;57.66
55187;BME280;55457;52.002;5.464;2023-06-19T04:51:31;100818.88;;;24.49;57.34
55187;BME280;55457;52.002;5.464;2023-06-19T04:54:00;100816.41;;;24.57;56.98
55187;BME280;55457;52.002;5.464;2023-06-19T04:56:26;100809.34;;;24.61;57.05
55187;BME280;55457;52.002;5.464;2023-06-19T04:58:51;100825.16;;;24.69;56.01
55187;BME280;55457;52.002;5.464;2023-06-19T05:01:17;100821.03;;;24.77;55.83
55187;BME280;55457;52.002;5.464;2023-06-19T05:03:45;100824.59;;;24.83;55.31
55187;BME280;55457;52.002;5.464;2023-06-19T05:06:13;100827.84;;;24.90;55.08
55187;BME280;55457;52.002;5.464;2023-06-19T05:08:38;100827.81;;;24.95;54.91
55187;BME280;55457;52.002;5.464;2023-06-19T05:11:04;100832.22;;;24.91;55.54
55187;BME280;55457;52.002;5.464;2023-06-19T05:13:29;100834.13;;;24.95;54.90
55187;BME280;55457;52.002;5.464;2023-06-19T05:15:55;100837.66;;;25.01;54.35
55187;BME280;55457;52.002;5.464;2023-06-19T05:18:23;100844.19;;;25.05;53.85
55187;BME280;55457;52.002;5.464;2023-06-19T05:20:48;100847.75;;;25.11;53.87
55187;BME280;55457;52.002;5.464;2023-06-19T05:23:14;100840.13;;;25.08;54.74
55187;BME280;55457;52.002;5.464;2023-06-19T05:25:39;100840.63;;;24.99;55.12
55187;BME280;55457;52.002;5.464;2023-06-19T05:28:04;100855.66;;;24.87;55.79
55187;BME280;55457;52.002;5.464;2023-06-19T05:30:30;100855.09;;;24.85;55.20
55187;BME280;55457;52.002;5.464;2023-06-19T05:32:55;100850.75;;;24.89;55.35
55187;BME280;55457;52.002;5.464;2023-06-19T05:35:21;100851.31;;;24.86;56.19
55187;BME280;55457;52.002;5.464;2023-06-19T05:37:47;100852.13;;;24.76;56.50
55187;BME280;55457;52.002;5.464;2023-06-19T05:40:12;100851.84;;;24.72;55.92
55187;BME280;55457;52.002;5.464;2023-06-19T05:42:38;100862.19;;;24.76;55.57
55187;BME280;55457;52.002;5.464;2023-06-19T05:45:04;100866.56;;;24.82;55.34
55187;BME280;55457;52.002;5.464;2023-06-19T05:47:30;100873.91;;;24.76;56.27
55187;BME280;55457;52.002;5.464;2023-06-19T05:49:56;100870.38;;;24.76;56.05
55187;BME280;55457;52.002;5.464;2023-06-19T05:52:22;100876.66;;;24.71;56.13
55187;BME280;55457;52.002;5.464;2023-06-19T05:54:47;100866.03;;;24.64;56.21
55187;BME280;55457;52.002;5.464;2023-06-19T05:57:13;100880.72;;;24.63;56.28
55187;BME280;55457;52.002;5.464;2023-06-19T05:59:41;100879.34;;;24.56;56.21
55187;BME280;55457;52.002;5.464;2023-06-19T06:02:06;100884.50;;;24.47;56.16
55187;BME280;55457;52.002;5.464;2023-06-19T06:04:33;100885.59;;;24.46;56.29
55187;BME280;55457;52.002;5.464;2023-06-19T06:06:59;100879.06;;;24.47;55.93
55187;BME280;55457;52.002;5.464;2023-06-19T06:09:24;100888.03;;;24.37;56.37
55187;BME280;55457;52.002;5.464;2023-06-19T06:11:50;100895.34;;;24.32;56.39
55187;BME280;55457;52.002;5.464;2023-06-19T06:14:15;100897.25;;;24.31;56.48
55187;BME280;55457;52.002;5.464;2023-06-19T06:16:40;100904.06;;;24.34;56.00
55187;BME280;55457;52.002;5.464;2023-06-19T06:19:06;100906.84;;;24.39;55.97
55187;BME280;55457;52.002;5.464;2023-06-19T06:21:31;100906.03;;;24.43;55.94
55187;BME280;55457;52.002;5.464;2023-06-19T06:23:57;100910.13;;;24.46;55.37
55187;BME280;55457;52.002;5.464;2023-06-19T06:26:22;100914.47;;;24.52;55.01
55187;BME280;55457;52.002;5.464;2023-06-19T06:28:47;100916.66;;;24.50;54.80
55187;BME280;55457;52.002;5.464;2023-06-19T06:31:13;100922.94;;;24.56;54.67
55187;BME280;55457;52.002;5.464;2023-06-19T06:33:38;100921.03;;;24.61;54.36
55187;BME280;55457;52.002;5.464;2023-06-19T06:36:04;100925.97;;;24.64;53.77
55187;BME280;55457;52.002;5.464;2023-06-19T06:38:29;100931.97;;;24.71;53.79
55187;BME280;55457;52.002;5.464;2023-06-19T06:40:55;100924.34;;;24.79;53.36
55187;BME280;55457;52.002;5.464;2023-06-19T06:43:20;100923.81;;;24.87;53.32
55187;BME280;55457;52.002;5.464;2023-06-19T06:45:46;100931.97;;;24.92;53.20
55187;BME280;55457;52.002;5.464;2023-06-19T06:48:11;100931.44;;;24.95;52.73
55187;BME280;55457;52.002;5.464;2023-06-19T06:50:36;100926.25;;;24.98;52.77
55187;BME280;55457;52.002;5.464;2023-06-19T06:53:02;100938.25;;;25.03;52.58
55187;BME280;55457;52.002;5.464;2023-06-19T06:55:28;100946.19;;;25.09;53.08
55187;BME280;55457;52.002;5.464;2023-06-19T06:57:53;100949.47;;;25.11;55.12
55187;BME280;55457;52.002;5.464;2023-06-19T07:00:18;100957.66;;;25.16;56.63
55187;BME280;55457;52.002;5.464;2023-06-19T07:02:44;100956.81;;;25.21;57.62
55187;BME280;55457;52.002;5.464;2023-06-19T07:05:11;100968.28;;;25.18;56.51
55187;BME280;55457;52.002;5.464;2023-06-19T07:07:37;100965.28;;;25.19;56.66
55187;BME280;55457;52.002;5.464;2023-06-19T07:10:02;100970.19;;;25.17;55.99
55187;BME280;55457;52.002;5.464;2023-06-19T07:12:28;100970.44;;;25.16;55.74
55187;BME280;55457;52.002;5.464;2023-06-19T07:14:54;100979.47;;;25.11;54.93
55187;BME280;55457;52.002;5.464;2023-06-19T07:17:19;100981.63;;;25.09;55.22
55187;BME280;55457;52.002;5.464;2023-06-19T07:19:45;100982.69;;;25.03;55.24
55187;BME280;55457;52.002;5.464;2023-06-19T07:22:10;100990.34;;;25.01;55.02
55187;BME280;55457;52.002;5.464;2023-06-19T07:24:36;100991.16;;;25.02;54.71
55187;BME280;55457;52.002;5.464;2023-06-19T07:27:01;100999.06;;;25.03;54.44
55187;BME280;55457;52.002;5.464;2023-06-19T07:29:26;100999.38;;;25.07;54.57
55187;BME280;55457;52.002;5.464;2023-06-19T07:31:52;101008.34;;;25.02;54.48
55187;BME280;55457;52.002;5.464;2023-06-19T07:34:17;101003.94;;;24.86;54.70
55187;BME280;55457;52.002;5.464;2023-06-19T07:36:43;100999.81;;;24.78;54.64
55187;BME280;55457;52.002;5.464;2023-06-19T07:39:08;101005.56;;;24.77;54.36
55187;BME280;55457;52.002;5.464;2023-06-19T07:41:35;101009.38;;;24.70;54.43
55187;BME280;55457;52.002;5.464;2023-06-19T07:44:00;101007.72;;;24.64;54.52
55187;BME280;55457;52.002;5.464;2023-06-19T07:46:25;101006.34;;;24.67;54.54
55187;BME280;55457;52.002;5.464;2023-06-19T07:48:51;101008.28;;;24.71;54.58
55187;BME280;55457;52.002;5.464;2023-06-19T07:51:16;101015.94;;;24.80;54.28
55187;BME280;55457;52.002;5.464;2023-06-19T07:53:41;101016.50;;;24.87;53.72
55187;BME280;55457;52.002;5.464;2023-06-19T07:56:08;101019.75;;;24.94;53.87
55187;BME280;55457;52.002;5.464;2023-06-19T07:58:34;101020.56;;;24.94;54.11
55187;BME280;55457;52.002;5.464;2023-06-19T08:00:59;101023.59;;;24.98;53.63
55187;BME280;55457;52.002;5.464;2023-06-19T08:03:25;101028.50;;;25.01;53.26
55187;BME280;55457;52.002;5.464;2023-06-19T08:05:51;101029.06;;;25.03;53.04
55187;BME280;55457;52.002;5.464;2023-06-19T08:08:16;101028.56;;;25.06;52.78
55187;BME280;55457;52.002;5.464;2023-06-19T08:10:41;101028.50;;;25.01;53.10
55187;BME280;55457;52.002;5.464;2023-06-19T08:13:07;101029.34;;;25.02;53.24
55187;BME280;55457;52.002;5.464;2023-06-19T08:15:32;101033.41;;;24.99;53.35
55187;BME280;55457;52.002;5.464;2023-06-19T08:17:58;101034.81;;;25.07;52.97
55187;BME280;55457;52.002;5.464;2023-06-19T08:20:23;101034.03;;;25.11;52.63
55187;BME280;55457;52.002;5.464;2023-06-19T08:22:49;101037.81;;;25.10;52.66
55187;BME280;55457;52.002;5.464;2023-06-19T08:25:14;101046.22;;;24.98;52.84
55187;BME280;55457;52.002;5.464;2023-06-19T08:27:40;101042.66;;;24.93;53.44
55187;BME280;55457;52.002;5.464;2023-06-19T08:30:05;101049.22;;;24.97;52.99
55187;BME280;55457;52.002;5.464;2023-06-19T08:32:31;101056.03;;;25.05;52.87
55187;BME280;55457;52.002;5.464;2023-06-19T08:34:56;101052.53;;;25.09;52.50
55187;BME280;55457;52.002;5.464;2023-06-19T08:37:22;101066.19;;;25.14;52.37
55187;BME280;55457;52.002;5.464;2023-06-19T08:39:47;101064.03;;;25.16;51.99
55187;BME280;55457;52.002;5.464;2023-06-19T08:42:12;101072.19;;;25.11;51.99
55187;BME280;55457;52.002;5.464;2023-06-19T08:44:38;101065.34;;;25.09;52.15
55187;BME280;55457;52.002;5.464;2023-06-19T08:47:04;101079.81;;;25.09;52.08
55187;BME280;55457;52.002;5.464;2023-06-19T08:49:31;101077.38;;;25.08;52.28
55187;BME280;55457;52.002;5.464;2023-06-19T08:51:58;101088.56;;;25.11;52.16
55187;BME280;55457;52.002;5.464;2023-06-19T08:54:23;101087.72;;;25.16;51.87
55187;BME280;55457;52.002;5.464;2023-06-19T08:56:50;101087.47;;;25.17;51.71
55187;BME280;55457;52.002;5.464;2023-06-19T08:59:18;101078.19;;;25.18;51.76
55187;BME280;55457;52.002;5.464;2023-06-19T09:01:51;101070.81;;;25.14;51.46
55187;BME280;55457;52.002;5.464;2023-06-19T09:04:19;101089.09;;;25.08;52.02
55187;BME280;55457;52.002;5.464;2023-06-19T09:06:47;101092.91;;;25.07;51.88
55187;BME280;55457;52.002;5.464;2023-06-19T09:09:14;101089.31;;;25.02;51.73
55187;BME280;55457;52.002;5.464;2023-06-19T09:11:40;101091.47;;;24.94;52.06
55187;BME280;55457;52.002;5.464;2023-06-19T09:14:11;101099.41;;;25.01;51.73
55187;BME280;55457;52.002;5.464;2023-06-19T09:16:38;101099.94;;;25.03;51.76
55187;BME280;55457;52.002;5.464;2023-06-19T09:19:04;101101.59;;;25.04;51.70
55187;BME280;55457;52.002;5.464;2023-06-19T09:21:29;101099.66;;;25.05;51.84
55187;BME280;55457;52.002;5.464;2023-06-19T09:23:54;101104.34;;;25.09;51.59
55187;BME280;55457;52.002;5.464;2023-06-19T09:26:20;101103.84;;;25.17;51.38
55187;BME280;55457;52.002;5.464;2023-06-19T09:28:45;101103.28;;;25.20;51.22
55187;BME280;55457;52.002;5.464;2023-06-19T09:31:11;101113.66;;;25.23;51.20
55187;BME280;55457;52.002;5.464;2023-06-19T09:33:40;101113.41;;;25.30;51.05
55187;BME280;55457;52.002;5.464;2023-06-19T09:36:05;101114.78;;;25.38;50.79
55187;BME280;55457;52.002;5.464;2023-06-19T09:38:33;101120.50;;;25.36;50.64
55187;BME280;55457;52.002;5.464;2023-06-19T09:41:03;101128.69;;;25.36;50.66
55187;BME280;55457;52.002;5.464;2023-06-19T09:43:40;101125.69;;;25.38;50.66
55187;BME280;55457;52.002;5.464;2023-06-19T09:46:06;101126.75;;;25.32;50.85
55187;BME280;55457;52.002;5.464;2023-06-19T09:48:33;101140.97;;;25.29;50.73
55187;BME280;55457;52.002;5.464;2023-06-19T09:51:10;101146.94;;;25.31;50.83
55187;BME280;55457;52.002;5.464;2023-06-19T09:53:37;101137.66;;;25.32;50.64
55187;BME280;55457;52.002;5.464;2023-06-19T09:56:03;101146.97;;;25.36;50.56
55187;BME280;55457;52.002;5.464;2023-06-19T09:58:29;101144.00;;;25.42;50.31
55187;BME280;55457;52.002;5.464;2023-06-19T10:00:56;101135.53;;;25.44;50.42
55187;BME280;55457;52.002;5.464;2023-06-19T10:03:32;101136.63;;;25.48;50.19
55187;BME280;55457;52.002;5.464;2023-06-19T10:05:59;101141.81;;;25.55;50.17
55187;BME280;55457;52.002;5.464;2023-06-19T10:08:30;101139.91;;;25.60;50.12
55187;BME280;55457;52.002;5.464;2023-06-19T10:10:55;101141.84;;;25.65;50.00
55187;BME280;55457;52.002;5.464;2023-06-19T10:13:37;101136.63;;;25.68;49.70
55187;BME280;55457;52.002;5.464;2023-06-19T10:16:06;101129.53;;;25.67;49.66
55187;BME280;55457;52.002;5.464;2023-06-19T10:18:33;101139.91;;;25.70;49.45
55187;BME280;55457;52.002;5.464;2023-06-19T10:21:16;101142.94;;;25.69;49.37
55187;BME280;55457;52.002;5.464;2023-06-19T10:23:42;101131.16;;;25.68;49.51
55187;BME280;55457;52.002;5.464;2023-06-19T10:26:07;101135.00;;;25.72;49.58
55187;BME280;55457;52.002;5.464;2023-06-19T10:28:33;101139.34;;;25.73;49.16
55187;BME280;55457;52.002;5.464;2023-06-19T10:31:00;101147.00;;;25.71;49.01
55187;BME280;55457;52.002;5.464;2023-06-19T10:33:34;101138.53;;;25.73;48.86
55187;BME280;55457;52.002;5.464;2023-06-19T10:36:00;101137.22;;;25.75;48.83
55187;BME280;55457;52.002;5.464;2023-06-19T10:38:27;101144.31;;;25.76;49.12
55187;BME280;55457;52.002;5.464;2023-06-19T10:40:52;101142.13;;;25.79;48.89
55187;BME280;55457;52.002;5.464;2023-06-19T10:43:24;101141.06;;;25.80;48.76
55187;BME280;55457;52.002;5.464;2023-06-19T10:45:53;101127.94;;;25.76;48.65
55187;BME280;55457;52.002;5.464;2023-06-19T10:48:27;101127.94;;;25.76;48.60
55187;BME280;55457;52.002;5.464;2023-06-19T10:50:55;101128.75;;;25.77;48.90
55187;BME280;55457;52.002;5.464;2023-06-19T10:53:31;101130.38;;;25.78;49.03
55187;BME280;55457;52.002;5.464;2023-06-19T10:55:59;101121.38;;;25.77;48.94
55187;BME280;55457;52.002;5.464;2023-06-19T10:58:26;101128.75;;;25.77;48.43
55187;BME280;55457;52.002;5.464;2023-06-19T11:00:51;101127.94;;;25.76;48.78
55187;BME280;55457;52.002;5.464;2023-06-19T11:03:18;101129.84;;;25.76;48.70
55187;BME280;55457;52.002;5.464;2023-06-19T11:05:44;101124.09;;;25.77;48.56
55187;BME280;55457;52.002;5.464;2023-06-19T11:08:10;101128.47;;;25.79;48.51
55187;BME280;55457;52.002;5.464;2023-06-19T11:10:35;101135.84;;;25.78;48.43
55187;BME280;55457;52.002;5.464;2023-06-19T11:13:01;101130.66;;;25.76;48.00
55187;BME280;55457;52.002;5.464;2023-06-19T11:15:33;101120.03;;;25.75;48.19
55187;BME280;55457;52.002;5.464;2023-06-19T11:18:00;101127.94;;;25.76;48.66
55187;BME280;55457;52.002;5.464;2023-06-19T11:20:26;101129.56;;;25.77;48.73
55187;BME280;55457;52.002;5.464;2023-06-19T11:22:56;101131.19;;;25.79;48.54
55187;BME280;55457;52.002;5.464;2023-06-19T11:25:22;101132.88;;;25.80;48.58
55187;BME280;55457;52.002;5.464;2023-06-19T11:27:47;101136.66;;;25.84;48.75
55187;BME280;55457;52.002;5.464;2023-06-19T11:30:17;101137.50;;;25.84;48.56
55187;BME280;55457;52.002;5.464;2023-06-19T11:32:46;101143.50;;;25.86;48.54
55187;BME280;55457;52.002;5.464;2023-06-19T11:35:15;101135.03;;;25.88;48.52
55187;BME280;55457;52.002;5.464;2023-06-19T11:37:42;101125.22;;;25.87;48.61
55187;BME280;55457;52.002;5.464;2023-06-19T11:40:09;101135.84;;;25.88;48.73
55187;BME280;55457;52.002;5.464;2023-06-19T11:42:47;101138.31;;;25.90;48.49
55187;BME280;55457;52.002;5.464;2023-06-19T11:45:12;101146.50;;;25.90;48.55
55187;BME280;55457;52.002;5.464;2023-06-19T11:47:37;101147.06;;;25.92;48.62
55187;BME280;55457;52.002;5.464;2023-06-19T11:50:04;101139.97;;;25.91;48.70
55187;BME280;55457;52.002;5.464;2023-06-19T11:52:30;101141.59;;;25.92;48.51
55187;BME280;55457;52.002;5.464;2023-06-19T11:54:55;101137.75;;;25.93;48.68
55187;BME280;55457;52.002;5.464;2023-06-19T11:57:20;101132.28;;;25.93;48.55
55187;BME280;55457;52.002;5.464;2023-06-19T11:59:46;101134.75;;;25.94;48.58
55187;BME280;55457;52.002;5.464;2023-06-19T12:02:12;101132.28;;;25.93;48.60
55187;BME280;55457;52.002;5.464;2023-06-19T12:04:37;101130.13;;;25.95;48.65
55187;BME280;55457;52.002;5.464;2023-06-19T12:07:03;101135.59;;;25.95;48.43
55187;BME280;55457;52.002;5.464;2023-06-19T12:09:29;101135.59;;;25.95;48.46
55187;BME280;55457;52.002;5.464;2023-06-19T12:11:55;101136.13;;;25.97;48.40
55187;BME280;55457;52.002;5.464;2023-06-19T12:14:21;101134.22;;;25.97;48.64
55187;BME280;55457;52.002;5.464;2023-06-19T12:16:47;101141.59;;;25.97;48.64
55187;BME280;55457;52.002;5.464;2023-06-19T12:19:12;101142.69;;;25.96;48.66
55187;BME280;55457;52.002;5.464;2023-06-19T12:21:38;101136.13;;;25.97;48.24
55187;BME280;55457;52.002;5.464;2023-06-19T12:24:04;101137.47;;;25.99;48.38
55187;BME280;55457;52.002;5.464;2023-06-19T12:26:29;101140.50;;;25.98;48.42
55187;BME280;55457;52.002;5.464;2023-06-19T12:28:55;101137.75;;;25.98;48.37
55187;BME280;55457;52.002;5.464;2023-06-19T12:31:20;101143.22;;;25.98;48.25
55187;BME280;55457;52.002;5.464;2023-06-19T12:33:45;101138.03;;;26.01;48.33
55187;BME280;55457;52.002;5.464;2023-06-19T12:36:16;101141.31;;;26.03;48.36
55187;BME280;55457;52.002;5.464;2023-06-19T12:38:41;101136.13;;;26.02;48.51
55187;BME280;55457;52.002;5.464;2023-06-19T12:41:07;101143.22;;;26.03;48.48
55187;BME280;55457;52.002;5.464;2023-06-19T12:43:33;101137.47;;;26.05;48.37
55187;BME280;55457;52.002;5.464;2023-06-19T12:45:58;101141.03;;;26.05;48.56